createdAt,value
2023-01-13T00:00:27.681Z,98669.84
2023-01-13T00:02:56.375Z,98667.00
2023-01-13T00:05:25.747Z,98662.84
2023-01-13T00:07:53.580Z,98663.56
2023-01-13T00:10:22.598Z,98693.41
2023-01-13T00:12:50.264Z,98667.66
2023-01-13T00:15:17.957Z,98662.84
2023-01-13T00:17:45.564Z,98679.94
2023-01-13T00:20:13.740Z,98690.19
2023-01-13T00:22:41.483Z,98671.44
2023-01-13T00:25:09.818Z,98681.91
2023-01-13T00:27:38.854Z,98663.47
2023-01-13T00:30:10.488Z,98661.19
2023-01-13T00:32:38.146Z,98668.56
2023-01-13T00:35:06.861Z,98667.28
2023-01-13T00:37:36.921Z,98667.56
2023-01-13T00:40:05.471Z,98657.75
2023-01-13T00:42:50.849Z,98656.75
2023-01-13T00:45:19.963Z,98664.84
2023-01-13T00:47:47.626Z,98660.00
2023-01-13T00:50:15.404Z,98660.34
2023-01-13T00:52:43.083Z,98662.44
2023-01-13T00:55:10.796Z,98673.34
2023-01-13T00:57:39.474Z,98661.16
2023-01-13T01:00:08.179Z,98674.19
2023-01-13T01:02:37.218Z,98662.19
2023-01-13T01:05:05.264Z,98667.28
2023-01-13T01:07:35.943Z,98667.84
2023-01-13T01:10:04.230Z,98676.78
2023-01-13T01:12:31.921Z,98683.47
2023-01-13T01:14:59.590Z,98679.56
2023-01-13T01:17:27.278Z,98652.50
2023-01-13T01:19:56.290Z,98682.22
2023-01-13T01:22:23.940Z,98672.81
2023-01-13T01:24:51.611Z,98681.19
2023-01-13T01:27:19.218Z,98684.31
2023-01-13T01:29:46.855Z,98677.09
2023-01-13T01:32:14.473Z,98682.31
2023-01-13T01:34:42.114Z,98672.31
2023-01-13T01:37:11.091Z,98659.03
2023-01-13T01:39:38.713Z,98662.63
2023-01-13T01:42:23.999Z,98688.22
2023-01-13T01:44:59.556Z,98696.75
2023-01-13T01:47:28.967Z,98707.28
2023-01-13T01:49:58.699Z,98715.06
2023-01-13T01:52:32.921Z,98702.38
2023-01-13T01:55:04.258Z,98685.66
2023-01-13T01:57:40.490Z,98669.69
2023-01-13T02:00:10.389Z,98690.97
2023-01-13T02:02:38.943Z,98682.63
2023-01-13T02:05:07.691Z,98683.75
2023-01-13T02:11:48.596Z,98694.75
2023-01-13T02:14:16.558Z,98683.75
2023-01-13T02:16:52.017Z,98679.19
2023-01-13T02:19:37.368Z,98680.03
2023-01-13T02:22:33.670Z,98685.25
2023-01-13T02:25:29.097Z,98671.59
2023-01-13T02:28:21.302Z,98679.75
2023-01-13T02:31:12.360Z,98693.13
2023-01-13T02:33:57.739Z,98690.56
2023-01-13T02:36:34.441Z,98686.84
2023-01-13T02:39:06.733Z,98696.94
2023-01-13T02:41:58.131Z,98698.66
2023-01-13T02:44:29.690Z,98703.50
2023-01-13T02:47:05.023Z,98691.50
2023-01-13T02:49:35.299Z,98688.28
2023-01-13T02:52:09.746Z,98695.25
2023-01-13T02:54:40.318Z,98687.34
2023-01-13T02:57:11.109Z,98683.81
2023-01-13T02:59:41.552Z,98690.00
2023-01-13T03:02:14.913Z,98692.66
2023-01-13T03:04:56.934Z,98681.25
2023-01-13T03:07:55.574Z,98689.97
2023-01-13T03:10:47.394Z,98689.59
2023-01-13T03:13:34.347Z,98699.28
2023-01-13T03:16:11.001Z,98699.03
2023-01-13T03:18:48.317Z,98694.84
2023-01-13T03:21:21.800Z,98687.47
2023-01-13T03:23:52.724Z,98685.63
2023-01-13T03:26:31.239Z,98687.09
2023-01-13T03:29:07.177Z,98678.34
2023-01-13T03:31:37.670Z,98669.75
2023-01-13T03:34:12.490Z,98670.28
2023-01-13T03:36:42.613Z,98677.97
2023-01-13T03:39:14.703Z,98672.16
2023-01-13T03:41:47.525Z,98672.03
2023-01-13T03:44:22.749Z,98666.50
2023-01-13T03:46:59.397Z,98667.69
2023-01-13T03:49:33.071Z,98677.00
2023-01-13T03:52:05.244Z,98680.22
2023-01-13T03:54:37.317Z,98682.31
2023-01-13T03:57:13.074Z,98661.59
2023-01-13T03:59:45.282Z,98662.41
2023-01-13T04:02:19.210Z,98664.44
2023-01-13T04:04:53.035Z,98672.50
2023-01-13T04:07:31.747Z,98674.34
2023-01-13T04:10:03.634Z,98676.63
2023-01-13T04:12:53.054Z,98676.41
2023-01-13T04:15:24.062Z,98678.13
2023-01-13T04:17:51.883Z,98667.31
2023-01-13T04:20:21.731Z,98669.06
2023-01-13T04:22:49.219Z,98664.44
2023-01-13T04:25:16.767Z,98666.69
2023-01-13T04:27:44.665Z,98671.25
2023-01-13T04:30:12.993Z,98674.41
2023-01-13T04:32:40.438Z,98675.28
2023-01-13T04:35:08.509Z,98670.25
2023-01-13T04:37:37.430Z,98675.28
2023-01-13T04:40:06.162Z,98666.91
2023-01-13T04:42:33.648Z,98660.06
2023-01-13T04:45:01.112Z,98683.50
2023-01-13T04:47:28.594Z,98663.31
2023-01-13T04:49:56.082Z,98662.28
2023-01-13T04:52:23.719Z,98666.56
2023-01-13T04:54:52.559Z,98657.81
2023-01-13T04:57:20.033Z,98668.63
2023-01-13T04:59:47.527Z,98658.34
2023-01-13T05:02:19.744Z,98653.19
2023-01-13T05:04:47.674Z,98660.91
2023-01-13T05:07:16.565Z,98653.78
2023-01-13T05:09:44.015Z,98663.66
2023-01-13T05:12:30.720Z,98666.13
2023-01-13T05:15:16.045Z,98661.25
2023-01-13T05:17:44.092Z,98655.78
2023-01-13T05:20:12.906Z,98656.63
2023-01-13T05:22:58.470Z,98653.38
2023-01-13T05:25:27.275Z,98639.69
2023-01-13T05:27:58.145Z,98638.84
2023-01-13T05:30:27.482Z,98648.25
2023-01-13T05:32:55.498Z,98650.63
2023-01-13T05:35:23.416Z,98652.84
2023-01-13T05:37:51.269Z,98658.03
2023-01-13T05:40:37.773Z,98669.31
2023-01-13T05:43:24.352Z,98672.34
2023-01-13T05:45:56.874Z,98694.22
2023-01-13T05:48:26.068Z,98678.34
2023-01-13T05:50:53.859Z,98687.03
2023-01-13T05:53:22.897Z,98682.03
2023-01-13T05:55:50.790Z,98691.50
2023-01-13T05:58:21.765Z,98667.41
2023-01-13T06:00:50.034Z,98681.38
2023-01-13T06:03:19.914Z,98665.44
2023-01-13T06:05:48.260Z,98664.94
2023-01-13T06:08:16.101Z,98661.50
2023-01-13T06:10:43.593Z,98667.94
2023-01-13T06:13:11.167Z,98670.63
2023-01-13T06:15:39.972Z,98681.09
2023-01-13T06:18:07.566Z,98678.28
2023-01-13T06:20:35.297Z,98678.38
2023-01-13T06:23:03.018Z,98686.41
2023-01-13T06:25:38.727Z,98674.00
2023-01-13T06:28:06.235Z,98689.25
2023-01-13T06:30:39.533Z,98692.91
2023-01-13T06:33:13.156Z,98679.66
2023-01-13T06:35:45.226Z,98685.22
2023-01-13T06:38:16.823Z,98677.25
2023-01-13T06:40:44.554Z,98685.22
2023-01-13T06:43:17.579Z,98669.28
2023-01-13T06:45:50.167Z,98693.41
2023-01-13T06:48:20.922Z,98679.84
2023-01-13T06:50:48.426Z,98702.88
2023-01-13T06:53:15.941Z,98702.69
2023-01-13T06:55:43.449Z,98694.59
2023-01-13T06:58:11.001Z,98699.75
2023-01-13T07:00:38.585Z,98693.56
2023-01-13T07:03:11.325Z,98705.59
2023-01-13T07:05:41.136Z,98712.09
2023-01-13T07:08:09.326Z,98714.63
2023-01-13T07:10:37.961Z,98717.13
2023-01-13T07:13:24.964Z,98713.78
2023-01-13T07:15:57.300Z,98719.25
2023-01-13T07:18:27.168Z,98723.53
2023-01-13T07:20:58.160Z,98719.94
2023-01-13T07:23:26.507Z,98728.44
2023-01-13T07:25:55.994Z,98736.69
2023-01-13T07:28:23.613Z,98730.59
2023-01-13T07:30:51.194Z,98745.38
2023-01-13T07:33:19.018Z,98738.13
2023-01-13T07:35:46.961Z,98738.53
2023-01-13T07:38:16.008Z,98741.72
2023-01-13T07:40:43.515Z,98730.00
2023-01-13T07:43:30.671Z,98738.56
2023-01-13T07:45:59.415Z,98755.50
2023-01-13T07:48:27.495Z,98742.00
2023-01-13T07:50:55.102Z,98752.66
2023-01-13T07:53:25.865Z,98751.16
2023-01-13T07:55:56.666Z,98746.31
2023-01-13T07:58:24.541Z,98758.69
2023-01-13T08:00:52.268Z,98762.53
2023-01-13T08:03:19.899Z,98762.34
2023-01-13T08:05:47.443Z,98760.50
2023-01-13T08:08:14.915Z,98762.41
2023-01-13T08:10:44.888Z,98762.56
2023-01-13T08:13:19.906Z,98752.81
2023-01-13T08:15:49.891Z,98783.47
2023-01-13T08:18:20.716Z,98757.06
2023-01-13T08:20:49.467Z,98768.47
2023-01-13T08:23:17.463Z,98781.41
2023-01-13T08:25:46.452Z,98789.09
2023-01-13T08:28:14.898Z,98788.28
2023-01-13T08:30:43.065Z,98802.53
2023-01-13T08:33:12.490Z,98791.00
2023-01-13T08:35:41.176Z,98786.28
2023-01-13T08:38:09.032Z,98805.47
2023-01-13T08:40:36.733Z,98809.06
2023-01-13T08:43:05.563Z,98794.38
2023-01-13T08:45:33.129Z,98803.00
2023-01-13T08:48:00.724Z,98807.75
2023-01-13T08:50:28.218Z,98805.88
2023-01-13T08:52:56.020Z,98812.06
2023-01-13T08:55:23.924Z,98805.94
2023-01-13T08:57:52.117Z,98822.09
2023-01-13T09:00:22.287Z,98833.50
2023-01-13T09:02:49.797Z,98815.88
2023-01-13T09:05:17.936Z,98824.16
2023-01-13T09:07:45.490Z,98806.28
2023-01-13T09:10:12.964Z,98808.84
2023-01-13T09:12:57.963Z,98803.28
2023-01-13T09:15:26.842Z,98821.25
2023-01-13T09:17:54.376Z,98820.56
2023-01-13T09:20:22.013Z,98803.63
2023-01-13T09:22:49.508Z,98809.16
2023-01-13T09:25:17.049Z,98808.81
2023-01-13T09:27:44.538Z,98819.19
2023-01-13T09:30:12.787Z,98816.97
2023-01-13T09:32:41.603Z,98821.25
2023-01-13T09:35:08.929Z,98829.97
2023-01-13T09:37:38.392Z,98819.28
2023-01-13T09:40:08.472Z,98816.34
2023-01-13T09:43:02.239Z,98830.25
2023-01-13T09:45:34.485Z,98825.28
2023-01-13T09:48:09.665Z,98816.53
2023-01-13T09:50:55.021Z,98829.66
2023-01-13T09:53:26.573Z,98830.91
2023-01-13T09:55:54.260Z,98833.22
2023-01-13T09:58:22.082Z,98830.16
2023-01-13T10:01:01.211Z,98831.34
2023-01-13T10:03:31.947Z,98828.25
2023-01-13T10:06:04.611Z,98838.13
2023-01-13T10:08:35.381Z,98843.78
2023-01-13T10:11:29.469Z,98840.53
2023-01-13T10:13:59.519Z,98851.97
2023-01-13T10:16:42.207Z,98840.69
2023-01-13T10:19:18.822Z,98837.94
2023-01-13T10:22:09.179Z,98841.53
2023-01-13T10:24:55.745Z,98839.81
2023-01-13T10:27:30.164Z,98836.41
2023-01-13T10:29:57.983Z,98847.72
2023-01-13T10:32:25.492Z,98840.09
2023-01-13T10:34:57.039Z,98845.91
2023-01-13T10:37:27.523Z,98843.59
2023-01-13T10:39:56.835Z,98842.75
2023-01-13T10:42:32.240Z,98847.72
2023-01-13T10:45:01.496Z,98864.50
2023-01-13T10:47:31.331Z,98849.09
2023-01-13T10:50:29.474Z,98851.91
2023-01-13T10:53:01.690Z,98849.25
2023-01-13T10:55:32.021Z,98857.72
2023-01-13T10:58:12.969Z,98852.69
2023-01-13T11:00:43.580Z,98851.81
2023-01-13T11:03:17.738Z,98854.09
2023-01-13T11:05:53.158Z,98869.59
2023-01-13T11:08:24.094Z,98844.84
2023-01-13T11:10:53.977Z,98841.31
2023-01-13T11:13:31.544Z,98852.31
2023-01-13T11:16:05.537Z,98846.81
2023-01-13T11:18:43.542Z,98850.59
2023-01-13T11:21:22.236Z,98852.09
2023-01-13T11:24:07.595Z,98856.25
2023-01-13T11:26:44.506Z,98860.50
2023-01-13T11:29:19.337Z,98876.16
2023-01-13T11:31:51.641Z,98868.28
2023-01-13T11:34:29.252Z,98865.34
2023-01-13T11:37:00.046Z,98851.22
2023-01-13T11:39:40.299Z,98858.00
2023-01-13T11:42:24.395Z,98860.81
2023-01-13T11:45:03.513Z,98860.81
2023-01-13T11:47:32.525Z,98867.94
2023-01-13T11:50:01.127Z,98873.41
2023-01-13T11:52:42.941Z,98873.16
2023-01-13T11:55:31.577Z,98865.34
2023-01-13T11:58:21.214Z,98872.31
2023-01-13T12:01:14.443Z,98872.31
2023-01-13T12:03:47.110Z,98878.38
2023-01-13T12:06:25.901Z,98868.53
2023-01-13T12:09:23.988Z,98882.63
2023-01-13T12:12:24.938Z,98881.81
2023-01-13T12:15:06.371Z,98882.97
2023-01-13T12:17:40.526Z,98871.50
2023-01-13T12:20:23.793Z,98887.56
2023-01-13T12:22:56.818Z,98887.56
2023-01-13T12:25:34.466Z,98889.25
2023-01-13T12:28:07.888Z,98891.75
2023-01-13T12:30:41.848Z,98887.00
2023-01-13T12:33:21.173Z,98888.72
2023-01-13T12:36:00.102Z,98911.09
2023-01-13T12:38:36.357Z,98915.97
2023-01-13T12:41:15.631Z,98913.50
2023-01-13T12:44:06.428Z,98919.63
2023-01-13T12:46:53.101Z,98908.69
2023-01-13T12:49:25.991Z,98925.31
2023-01-13T12:52:12.624Z,98926.06
2023-01-13T12:55:03.887Z,98935.13
2023-01-13T12:57:34.442Z,98937.50
2023-01-13T13:00:17.606Z,98910.78
2023-01-13T13:03:29.294Z,98934.41
2023-01-13T13:06:08.846Z,98938.50
2023-01-13T13:08:47.274Z,98943.00
2023-01-13T13:11:57.174Z,98935.78
2023-01-13T13:15:03.786Z,98945.75
2023-01-13T13:17:45.929Z,98936.25
2023-01-13T13:20:54.728Z,98946.47
2023-01-13T13:23:47.781Z,98958.72
2023-01-13T13:26:40.024Z,98945.31
2023-01-13T13:29:50.759Z,98954.25
2023-01-13T13:32:33.914Z,98950.47
2023-01-13T13:35:18.453Z,98959.66
2023-01-13T13:38:17.346Z,98958.59
2023-01-13T13:41:05.763Z,98965.13
2023-01-13T13:43:58.847Z,98977.47
2023-01-13T13:46:47.892Z,98981.66
2023-01-13T13:49:16.816Z,98986.91
2023-01-13T13:51:49.991Z,98986.84
2023-01-13T13:54:20.898Z,98995.41
2023-01-13T13:56:51.475Z,99001.28
2023-01-13T13:59:22.375Z,99011.63
2023-01-13T14:02:00.512Z,98994.38
2023-01-13T14:04:30.947Z,98999.03
2023-01-13T14:07:00.125Z,99005.19
2023-01-13T14:09:29.946Z,99011.81
2023-01-13T14:12:01.067Z,99020.16
2023-01-13T14:14:29.071Z,99030.22
2023-01-13T14:16:57.214Z,99037.75
2023-01-13T14:19:32.358Z,99037.53
2023-01-13T14:22:02.026Z,99045.88
2023-01-13T14:24:32.212Z,99052.91
2023-01-13T14:27:11.850Z,99066.47
2023-01-13T14:29:39.549Z,99072.00
2023-01-13T14:32:08.411Z,99073.84
2023-01-13T14:34:49.366Z,99086.38
2023-01-13T14:37:26.333Z,99085.19
2023-01-13T14:39:53.860Z,99103.16
2023-01-13T14:42:22.784Z,99099.78
2023-01-13T14:44:51.863Z,99098.16
2023-01-13T14:47:26.632Z,99087.19
2023-01-13T14:50:00.377Z,99102.38
2023-01-13T14:52:30.303Z,99106.81
2023-01-13T14:55:23.603Z,99110.38
2023-01-13T14:57:52.878Z,99114.38
2023-01-13T15:00:23.510Z,99112.69
2023-01-13T15:03:02.343Z,99120.56
2023-01-13T15:05:47.118Z,99119.69
2023-01-13T15:08:36.182Z,99130.41
2023-01-13T15:11:05.757Z,99139.09
2023-01-13T15:13:40.972Z,99137.91
2023-01-13T15:16:17.348Z,99136.00
2023-01-13T15:18:45.281Z,99136.00
2023-01-13T15:21:13.328Z,99145.75
2023-01-13T15:23:41.198Z,99147.25
2023-01-13T15:26:19.526Z,99160.38
2023-01-13T15:28:48.856Z,99140.56
2023-01-13T15:31:16.661Z,99156.84
2023-01-13T15:33:44.374Z,99165.56
2023-01-13T15:36:21.696Z,99157.53
2023-01-13T15:38:49.385Z,99160.59
2023-01-13T15:41:17.096Z,99171.69
2023-01-13T15:44:02.255Z,99171.69
2023-01-13T15:46:40.260Z,99181.44
2023-01-13T15:49:15.340Z,99213.34
2023-01-13T15:51:44.411Z,99210.97
2023-01-13T15:54:12.626Z,99213.91
2023-01-13T15:56:41.946Z,99210.63
2023-01-13T15:59:17.511Z,99201.44
2023-01-13T16:01:46.844Z,99213.97
2023-01-13T16:04:14.418Z,99214.13
2023-01-13T16:06:42.374Z,99216.47
2023-01-13T16:09:13.433Z,99215.63
2023-01-13T16:11:40.946Z,99229.97
2023-01-13T16:14:08.444Z,99225.66
2023-01-13T16:16:37.194Z,99229.38
2023-01-13T16:19:06.149Z,99224.22
2023-01-13T16:21:33.746Z,99242.22
2023-01-13T16:24:01.217Z,99235.41
2023-01-13T16:26:30.228Z,99234.31
2023-01-13T16:28:58.922Z,99247.59
2023-01-13T16:31:31.831Z,99235.91
2023-01-13T16:34:00.389Z,99256.63
2023-01-13T16:36:30.501Z,99263.06
2023-01-13T16:38:58.059Z,99264.47
2023-01-13T16:41:25.838Z,99270.41
2023-01-13T16:43:53.809Z,99279.69
2023-01-13T16:46:24.422Z,99274.28
2023-01-13T16:48:53.883Z,99283.41
2023-01-13T16:51:22.298Z,99279.22
2023-01-13T16:53:51.810Z,99287.69
2023-01-13T16:56:24.957Z,99278.56
2023-01-13T16:58:54.216Z,99286.25
2023-01-13T17:01:25.039Z,99296.94
2023-01-13T17:03:53.451Z,99296.94
2023-01-13T17:06:24.704Z,99299.34
2023-01-13T17:08:54.138Z,99305.59
2023-01-13T17:11:21.963Z,99307.47
2023-01-13T17:13:49.519Z,99308.75
2023-01-13T17:16:19.942Z,99308.13
2023-01-13T17:18:48.274Z,99308.66
2023-01-13T17:21:16.223Z,99314.69
2023-01-13T17:23:43.834Z,99322.06
2023-01-13T17:26:28.370Z,99317.53
2023-01-13T17:28:56.184Z,99328.25
2023-01-13T17:31:26.000Z,99333.34
2023-01-13T17:33:53.538Z,99335.34
2023-01-13T17:36:21.033Z,99323.66
2023-01-13T17:38:48.593Z,99344.06
2023-01-13T17:41:17.410Z,99330.03
2023-01-13T17:43:44.915Z,99352.97
2023-01-13T17:46:13.771Z,99344.16
2023-01-13T17:48:41.224Z,99350.97
2023-01-13T17:51:12.889Z,99342.88
2023-01-13T17:53:41.270Z,99338.91
2023-01-13T17:56:10.272Z,99361.16
2023-01-13T17:58:41.336Z,99348.16
2023-01-13T18:01:10.054Z,99349.63
2023-01-13T18:03:38.539Z,99351.09
2023-01-13T18:06:07.818Z,99352.19
2023-01-13T18:08:35.460Z,99358.41
2023-01-13T18:11:03.279Z,99357.16
2023-01-13T18:13:31.070Z,99366.63
2023-01-13T18:16:07.045Z,99371.06
2023-01-13T18:18:35.264Z,99376.53
2023-01-13T18:21:20.671Z,99380.53
2023-01-13T18:24:05.735Z,99377.16
2023-01-13T18:26:51.103Z,99384.59
2023-01-13T18:29:18.778Z,99394.13
2023-01-13T18:31:47.592Z,99401.16
2023-01-13T18:34:15.148Z,99384.13
2023-01-13T18:36:42.695Z,99399.75
2023-01-13T18:39:10.178Z,99409.25
2023-01-13T18:41:55.519Z,99408.41
2023-01-13T18:44:23.148Z,99409.72
2023-01-13T18:46:52.092Z,99422.91
2023-01-13T18:49:19.594Z,99416.06
2023-01-13T18:51:47.062Z,99416.25
2023-01-13T18:54:14.586Z,99416.13
2023-01-13T18:56:42.252Z,99422.56
2023-01-13T18:59:09.729Z,99427.34
2023-01-13T19:01:37.990Z,99426.78
2023-01-13T19:04:10.489Z,99433.25
2023-01-13T19:06:47.484Z,99428.16
2023-01-13T19:09:15.485Z,99434.69
2023-01-13T19:11:43.472Z,99433.16
2023-01-13T19:14:11.653Z,99443.16
2023-01-13T19:16:39.156Z,99444.78
2023-01-13T19:19:08.262Z,99454.75
2023-01-13T19:21:36.023Z,99454.94
2023-01-13T19:24:04.021Z,99452.28
2023-01-13T19:26:31.508Z,99459.81
2023-01-13T19:28:59.041Z,99455.22
2023-01-13T19:31:26.622Z,99452.22
2023-01-13T19:33:54.120Z,99460.56
2023-01-13T19:36:22.929Z,99465.28
2023-01-13T19:38:50.420Z,99471.41
2023-01-13T19:41:31.820Z,99469.19
2023-01-13T19:44:17.011Z,99474.41
2023-01-13T19:46:44.513Z,99482.47
2023-01-13T19:49:12.177Z,99489.91
2023-01-13T19:51:41.014Z,99478.56
2023-01-13T19:54:08.478Z,99482.16
2023-01-13T19:56:35.978Z,99489.31
2023-01-13T19:59:03.686Z,99517.97
2023-01-13T20:01:34.933Z,99504.31
2023-01-13T20:04:05.153Z,99493.25
2023-01-13T20:06:32.898Z,99503.25
2023-01-13T20:09:01.758Z,99497.81
2023-01-13T20:11:33.056Z,99500.66
2023-01-13T20:14:01.722Z,99497.59
2023-01-13T20:16:32.818Z,99506.56
2023-01-13T20:19:00.567Z,99509.72
2023-01-13T20:21:28.097Z,99516.72
2023-01-13T20:23:56.663Z,99519.56
2023-01-13T20:26:25.507Z,99521.94
2023-01-13T20:28:52.976Z,99525.53
2023-01-13T20:31:20.484Z,99526.06
2023-01-13T20:33:50.643Z,99535.09
2023-01-13T20:36:27.506Z,99543.56
2023-01-13T20:38:58.399Z,99538.69
2023-01-13T20:41:45.016Z,99548.78
2023-01-13T20:44:13.386Z,99546.22
2023-01-13T20:46:41.800Z,99552.47
2023-01-13T20:49:12.063Z,99560.44
2023-01-13T20:51:40.000Z,99560.56
2023-01-13T20:54:08.991Z,99566.44
2023-01-13T20:56:37.966Z,99554.72
2023-01-13T20:59:05.514Z,99575.03
2023-01-13T21:01:33.583Z,99570.19
2023-01-13T21:04:01.957Z,99580.16
2023-01-13T21:06:30.263Z,99587.03
2023-01-13T21:08:57.776Z,99576.41
2023-01-13T21:11:45.277Z,99587.31
2023-01-13T21:14:34.253Z,99574.19
2023-01-13T21:17:02.495Z,99582.16
2023-01-13T21:19:29.011Z,99591.44
2023-01-13T21:21:57.132Z,99582.16
2023-01-13T21:24:25.152Z,99591.09
2023-01-13T21:26:55.353Z,99585.28
2023-01-13T21:29:24.234Z,99585.94
2023-01-13T21:31:51.871Z,99596.34
2023-01-13T21:34:19.445Z,99600.88
2023-01-13T21:36:46.939Z,99600.91
2023-01-13T21:39:15.901Z,99598.91
2023-01-13T21:42:01.322Z,99604.22
2023-01-13T21:44:48.583Z,99610.69
2023-01-13T21:47:34.957Z,99612.81
2023-01-13T21:50:03.157Z,99629.13
2023-01-13T21:52:30.712Z,99619.44
2023-01-13T21:55:16.031Z,99622.44
2023-01-13T21:57:45.970Z,99639.22
2023-01-13T22:00:16.166Z,99632.38
2023-01-13T22:02:43.865Z,99627.00
2023-01-13T22:05:13.382Z,99619.22
2023-01-13T22:07:41.904Z,99628.09
2023-01-13T22:10:12.433Z,99621.13
2023-01-13T22:12:40.479Z,99635.25
2023-01-13T22:15:09.694Z,99638.13
2023-01-13T22:17:38.576Z,99622.97
2023-01-13T22:20:07.258Z,99637.47
2023-01-13T22:22:36.982Z,99627.75
2023-01-13T22:25:06.877Z,99637.44
2023-01-13T22:27:39.348Z,99638.28
2023-01-13T22:30:08.858Z,99634.81
2023-01-13T22:32:39.312Z,99643.03
2023-01-13T22:35:08.105Z,99641.44
2023-01-13T22:37:36.176Z,99639.88
2023-01-13T22:40:04.261Z,99659.44
2023-01-13T22:42:32.003Z,99656.72
2023-01-13T22:44:59.468Z,99659.19
2023-01-13T22:47:26.923Z,99664.06
2023-01-13T22:49:55.732Z,99664.50
2023-01-13T22:52:23.383Z,99657.34
2023-01-13T22:54:50.865Z,99657.16
2023-01-13T22:57:18.887Z,99666.53
2023-01-13T22:59:46.401Z,99671.22
2023-01-13T23:02:13.994Z,99678.06
2023-01-13T23:04:41.495Z,99677.63
2023-01-13T23:07:10.341Z,99695.53
2023-01-13T23:09:37.865Z,99694.00
2023-01-13T23:12:05.854Z,99688.50
2023-01-13T23:14:33.620Z,99693.84
2023-01-13T23:17:01.172Z,99682.41
2023-01-13T23:19:28.698Z,99686.28
2023-01-13T23:21:56.171Z,99692.63
2023-01-13T23:24:27.758Z,99705.78
2023-01-13T23:26:55.294Z,99698.31
2023-01-13T23:29:22.783Z,99696.09
2023-01-13T23:31:50.286Z,99703.50
2023-01-13T23:34:17.785Z,99698.50
2023-01-13T23:36:45.424Z,99712.69
2023-01-13T23:39:12.913Z,99716.03
2023-01-13T23:41:41.770Z,99712.91
2023-01-13T23:44:10.064Z,99711.56
2023-01-13T23:46:37.712Z,99715.72
2023-01-13T23:49:05.861Z,99705.66
2023-01-13T23:51:33.527Z,99707.75
2023-01-13T23:54:01.268Z,99704.59
2023-01-13T23:56:30.566Z,99717.84
2023-01-13T23:58:59.918Z,99716.59
